sensor_id;sensor_type;location;lat;lon;timestamp;P1;durP1;ratioP1;P2;durP2;ratioP2
75417;SDS011;63997;52.112;5.420;2023-05-23T00:01:42;16.70;;;7.40;;
75417;SDS011;63997;52.112;5.420;2023-05-23T00:04:10;20.05;;;7.05;;
75417;SDS011;63997;52.112;5.420;2023-05-23T00:06:42;13.07;;;7.28;;
75417;SDS011;63997;52.112;5.420;2023-05-23T00:09:12;20.17;;;8.25;;
75417;SDS011;63997;52.112;5.420;2023-05-23T00:11:39;13.37;;;7.43;;
75417;SDS011;63997;52.112;5.420;2023-05-23T00:14:10;16.80;;;8.10;;
75417;SDS011;63997;52.112;5.420;2023-05-23T00:16:39;19.80;;;8.68;;
75417;SDS011;63997;52.112;5.420;2023-05-23T00:19:10;15.38;;;7.50;;
75417;SDS011;63997;52.112;5.420;2023-05-23T00:21:45;15.07;;;8.25;;
75417;SDS011;63997;52.112;5.420;2023-05-23T00:24:17;18.20;;;7.23;;
75417;SDS011;63997;52.112;5.420;2023-05-23T00:26:45;15.25;;;7.20;;
75417;SDS011;63997;52.112;5.420;2023-05-23T00:29:13;14.15;;;6.85;;
75417;SDS011;63997;52.112;5.420;2023-05-23T00:31:42;12.55;;;7.03;;
75417;SDS011;63997;52.112;5.420;2023-05-23T00:34:15;13.25;;;6.47;;
75417;SDS011;63997;52.112;5.420;2023-05-23T00:36:46;15.47;;;8.30;;
75417;SDS011;63997;52.112;5.420;2023-05-23T00:39:13;17.98;;;7.22;;
75417;SDS011;63997;52.112;5.420;2023-05-23T00:41:46;12.52;;;6.45;;
75417;SDS011;63997;52.112;5.420;2023-05-23T00:44:17;13.25;;;6.63;;
75417;SDS011;63997;52.112;5.420;2023-05-23T00:46:46;20.55;;;6.15;;
75417;SDS011;63997;52.112;5.420;2023-05-23T00:49:16;8.90;;;5.40;;
75417;SDS011;63997;52.112;5.420;2023-05-23T00:51:45;10.45;;;5.80;;
75417;SDS011;63997;52.112;5.420;2023-05-23T00:54:19;14.82;;;5.43;;
75417;SDS011;63997;52.112;5.420;2023-05-23T00:56:50;9.45;;;4.82;;
75417;SDS011;63997;52.112;5.420;2023-05-23T00:59:17;10.15;;;5.20;;
75417;SDS011;63997;52.112;5.420;2023-05-23T01:01:47;7.43;;;4.77;;
75417;SDS011;63997;52.112;5.420;2023-05-23T01:04:15;14.77;;;5.03;;
75417;SDS011;63997;52.112;5.420;2023-05-23T01:06:43;9.32;;;5.22;;
75417;SDS011;63997;52.112;5.420;2023-05-23T01:09:14;9.25;;;4.32;;
75417;SDS011;63997;52.112;5.420;2023-05-23T01:11:54;9.10;;;4.57;;
75417;SDS011;63997;52.112;5.420;2023-05-23T01:20:48;8.18;;;4.32;;
75417;SDS011;63997;52.112;5.420;2023-05-23T01:23:45;11.70;;;5.20;;
75417;SDS011;63997;52.112;5.420;2023-05-23T01:28:49;6.97;;;4.27;;
75417;SDS011;63997;52.112;5.420;2023-05-23T01:31:20;10.65;;;4.93;;
75417;SDS011;63997;52.112;5.420;2023-05-23T01:33:52;11.73;;;4.65;;
75417;SDS011;63997;52.112;5.420;2023-05-23T01:36:20;8.60;;;4.50;;
75417;SDS011;63997;52.112;5.420;2023-05-23T01:38:47;9.02;;;4.88;;
75417;SDS011;63997;52.112;5.420;2023-05-23T01:41:14;8.43;;;4.90;;
75417;SDS011;63997;52.112;5.420;2023-05-23T01:43:40;10.98;;;4.95;;
75417;SDS011;63997;52.112;5.420;2023-05-23T01:46:07;8.95;;;5.00;;
75417;SDS011;63997;52.112;5.420;2023-05-23T01:48:33;8.70;;;4.13;;
75417;SDS011;63997;52.112;5.420;2023-05-23T01:51:01;8.48;;;4.40;;
75417;SDS011;63997;52.112;5.420;2023-05-23T01:53:28;9.17;;;4.47;;
75417;SDS011;63997;52.112;5.420;2023-05-23T01:55:56;8.38;;;4.78;;
75417;SDS011;63997;52.112;5.420;2023-05-23T01:58:23;7.93;;;4.38;;
75417;SDS011;63997;52.112;5.420;2023-05-23T02:00:50;8.23;;;4.07;;
75417;SDS011;63997;52.112;5.420;2023-05-23T02:03:17;14.10;;;5.05;;
75417;SDS011;63997;52.112;5.420;2023-05-23T02:05:48;10.37;;;4.70;;
75417;SDS011;63997;52.112;5.420;2023-05-23T02:08:16;11.02;;;4.65;;
75417;SDS011;63997;52.112;5.420;2023-05-23T02:10:43;9.85;;;4.60;;
75417;SDS011;63997;52.112;5.420;2023-05-23T02:13:09;7.88;;;4.18;;
75417;SDS011;63997;52.112;5.420;2023-05-23T02:15:36;12.80;;;5.15;;
75417;SDS011;63997;52.112;5.420;2023-05-23T02:18:02;8.50;;;4.60;;
75417;SDS011;63997;52.112;5.420;2023-05-23T02:20:29;12.40;;;4.63;;
75417;SDS011;63997;52.112;5.420;2023-05-23T02:22:55;11.05;;;5.32;;
75417;SDS011;63997;52.112;5.420;2023-05-23T02:25:22;14.60;;;4.65;;
75417;SDS011;63997;52.112;5.420;2023-05-23T02:27:48;8.93;;;4.10;;
75417;SDS011;63997;52.112;5.420;2023-05-23T02:30:15;11.40;;;4.50;;
75417;SDS011;63997;52.112;5.420;2023-05-23T02:32:42;9.68;;;4.35;;
75417;SDS011;63997;52.112;5.420;2023-05-23T02:35:10;9.48;;;4.90;;
75417;SDS011;63997;52.112;5.420;2023-05-23T02:37:37;9.63;;;3.95;;
75417;SDS011;63997;52.112;5.420;2023-05-23T02:40:04;12.77;;;4.40;;
75417;SDS011;63997;52.112;5.420;2023-05-23T02:42:32;8.97;;;4.50;;
75417;SDS011;63997;52.112;5.420;2023-05-23T02:44:59;12.77;;;4.55;;
75417;SDS011;63997;52.112;5.420;2023-05-23T02:47:26;12.93;;;4.90;;
75417;SDS011;63997;52.112;5.420;2023-05-23T02:49:53;8.85;;;4.32;;
75417;SDS011;63997;52.112;5.420;2023-05-23T02:52:20;12.93;;;5.28;;
75417;SDS011;63997;52.112;5.420;2023-05-23T02:54:47;8.97;;;3.67;;
75417;SDS011;63997;52.112;5.420;2023-05-23T02:57:13;8.43;;;4.07;;
75417;SDS011;63997;52.112;5.420;2023-05-23T02:59:40;7.10;;;4.28;;
75417;SDS011;63997;52.112;5.420;2023-05-23T03:02:06;13.00;;;5.45;;
75417;SDS011;63997;52.112;5.420;2023-05-23T03:04:33;9.40;;;4.43;;
75417;SDS011;63997;52.112;5.420;2023-05-23T03:06:59;8.67;;;4.50;;
75417;SDS011;63997;52.112;5.420;2023-05-23T03:09:27;8.40;;;4.40;;
75417;SDS011;63997;52.112;5.420;2023-05-23T03:11:54;18.50;;;4.28;;
75417;SDS011;63997;52.112;5.420;2023-05-23T03:14:20;13.23;;;4.93;;
75417;SDS011;63997;52.112;5.420;2023-05-23T03:16:46;8.65;;;4.60;;
75417;SDS011;63997;52.112;5.420;2023-05-23T03:19:13;13.50;;;4.07;;
75417;SDS011;63997;52.112;5.420;2023-05-23T03:21:39;11.93;;;4.63;;
75417;SDS011;63997;52.112;5.420;2023-05-23T03:24:07;14.02;;;4.65;;
75417;SDS011;63997;52.112;5.420;2023-05-23T03:26:44;13.13;;;4.65;;
75417;SDS011;63997;52.112;5.420;2023-05-23T03:29:11;17.80;;;5.32;;
75417;SDS011;63997;52.112;5.420;2023-05-23T03:31:37;13.23;;;4.20;;
75417;SDS011;63997;52.112;5.420;2023-05-23T03:34:10;19.67;;;5.25;;
75417;SDS011;63997;52.112;5.420;2023-05-23T03:36:38;9.82;;;4.47;;
75417;SDS011;63997;52.112;5.420;2023-05-23T03:39:05;19.73;;;5.38;;
75417;SDS011;63997;52.112;5.420;2023-05-23T03:41:33;14.77;;;5.30;;
75417;SDS011;63997;52.112;5.420;2023-05-23T03:44:00;17.50;;;5.00;;
75417;SDS011;63997;52.112;5.420;2023-05-23T03:46:26;22.38;;;5.75;;
75417;SDS011;63997;52.112;5.420;2023-05-23T03:48:53;24.15;;;6.75;;
75417;SDS011;63997;52.112;5.420;2023-05-23T03:51:19;17.80;;;5.65;;
75417;SDS011;63997;52.112;5.420;2023-05-23T03:53:46;13.43;;;6.20;;
75417;SDS011;63997;52.112;5.420;2023-05-23T03:56:12;11.20;;;4.70;;
75417;SDS011;63997;52.112;5.420;2023-05-23T03:58:39;18.98;;;5.45;;
75417;SDS011;63997;52.112;5.420;2023-05-23T04:01:05;13.13;;;4.78;;
75417;SDS011;63997;52.112;5.420;2023-05-23T04:03:31;17.90;;;5.70;;
75417;SDS011;63997;52.112;5.420;2023-05-23T04:06:00;14.88;;;5.45;;
75417;SDS011;63997;52.112;5.420;2023-05-23T04:08:27;17.50;;;5.23;;
75417;SDS011;63997;52.112;5.420;2023-05-23T04:10:54;22.20;;;5.38;;
75417;SDS011;63997;52.112;5.420;2023-05-23T04:13:21;15.30;;;4.97;;
75417;SDS011;63997;52.112;5.420;2023-05-23T04:15:49;15.98;;;5.00;;
75417;SDS011;63997;52.112;5.420;2023-05-23T04:18:17;14.63;;;4.60;;
75417;SDS011;63997;52.112;5.420;2023-05-23T04:20:45;16.80;;;5.20;;
75417;SDS011;63997;52.112;5.420;2023-05-23T04:23:15;19.33;;;5.30;;
75417;SDS011;63997;52.112;5.420;2023-05-23T04:25:41;16.13;;;4.82;;
75417;SDS011;63997;52.112;5.420;2023-05-23T04:28:08;16.60;;;4.65;;
75417;SDS011;63997;52.112;5.420;2023-05-23T04:30:36;14.95;;;4.47;;
75417;SDS011;63997;52.112;5.420;2023-05-23T04:33:02;11.30;;;3.83;;
75417;SDS011;63997;52.112;5.420;2023-05-23T04:35:29;15.20;;;3.88;;
75417;SDS011;63997;52.112;5.420;2023-05-23T04:37:59;12.02;;;4.18;;
75417;SDS011;63997;52.112;5.420;2023-05-23T04:40:27;13.32;;;3.38;;
75417;SDS011;63997;52.112;5.420;2023-05-23T04:42:54;15.88;;;3.67;;
75417;SDS011;63997;52.112;5.420;2023-05-23T04:45:22;8.03;;;3.50;;
75417;SDS011;63997;52.112;5.420;2023-05-23T04:47:48;9.90;;;3.03;;
75417;SDS011;63997;52.112;5.420;2023-05-23T04:50:15;9.88;;;2.58;;
75417;SDS011;63997;52.112;5.420;2023-05-23T04:52:42;10.75;;;2.90;;
75417;SDS011;63997;52.112;5.420;2023-05-23T04:55:08;8.57;;;3.15;;
75417;SDS011;63997;52.112;5.420;2023-05-23T04:57:35;11.07;;;2.57;;
75417;SDS011;63997;52.112;5.420;2023-05-23T05:00:02;11.80;;;2.63;;
75417;SDS011;63997;52.112;5.420;2023-05-23T05:02:35;14.93;;;3.45;;
75417;SDS011;63997;52.112;5.420;2023-05-23T05:05:03;8.90;;;2.85;;
75417;SDS011;63997;52.112;5.420;2023-05-23T05:07:30;11.43;;;3.83;;
75417;SDS011;63997;52.112;5.420;2023-05-23T05:09:56;10.33;;;3.13;;
75417;SDS011;63997;52.112;5.420;2023-05-23T05:12:26;8.30;;;3.08;;
75417;SDS011;63997;52.112;5.420;2023-05-23T05:14:52;11.02;;;3.53;;
75417;SDS011;63997;52.112;5.420;2023-05-23T05:17:19;14.20;;;3.53;;
75417;SDS011;63997;52.112;5.420;2023-05-23T05:19:45;9.02;;;3.10;;
75417;SDS011;63997;52.112;5.420;2023-05-23T05:22:12;16.87;;;4.13;;
75417;SDS011;63997;52.112;5.420;2023-05-23T05:24:38;10.40;;;3.47;;
75417;SDS011;63997;52.112;5.420;2023-05-23T05:27:06;12.18;;;3.03;;
75417;SDS011;63997;52.112;5.420;2023-05-23T05:29:34;9.50;;;3.30;;
75417;SDS011;63997;52.112;5.420;2023-05-23T05:32:01;9.32;;;2.97;;
75417;SDS011;63997;52.112;5.420;2023-05-23T05:34:28;10.63;;;2.70;;
75417;SDS011;63997;52.112;5.420;2023-05-23T05:36:55;6.28;;;2.60;;
75417;SDS011;63997;52.112;5.420;2023-05-23T05:39:23;5.18;;;2.47;;
75417;SDS011;63997;52.112;5.420;2023-05-23T05:41:53;13.13;;;3.50;;
75417;SDS011;63997;52.112;5.420;2023-05-23T05:44:19;7.68;;;2.90;;
75417;SDS011;63997;52.112;5.420;2023-05-23T05:46:46;8.50;;;2.47;;
75417;SDS011;63997;52.112;5.420;2023-05-23T05:49:13;17.65;;;3.83;;
75417;SDS011;63997;52.112;5.420;2023-05-23T05:51:40;8.88;;;3.05;;
75417;SDS011;63997;52.112;5.420;2023-05-23T05:56:33;13.93;;;4.20;;
75417;SDS011;63997;52.112;5.420;2023-05-23T05:58:59;14.27;;;3.63;;
75417;SDS011;63997;52.112;5.420;2023-05-23T06:01:26;11.32;;;3.00;;
75417;SDS011;63997;52.112;5.420;2023-05-23T06:03:52;13.50;;;3.92;;
75417;SDS011;63997;52.112;5.420;2023-05-23T06:06:19;9.60;;;2.95;;
75417;SDS011;63997;52.112;5.420;2023-05-23T06:08:45;8.23;;;3.25;;
75417;SDS011;63997;52.112;5.420;2023-05-23T06:11:12;12.40;;;3.40;;
75417;SDS011;63997;52.112;5.420;2023-05-23T06:13:38;11.07;;;3.20;;
75417;SDS011;63997;52.112;5.420;2023-05-23T06:16:04;12.02;;;3.50;;
75417;SDS011;63997;52.112;5.420;2023-05-23T06:18:31;11.68;;;3.88;;
75417;SDS011;63997;52.112;5.420;2023-05-23T06:20:58;9.88;;;3.50;;
75417;SDS011;63997;52.112;5.420;2023-05-23T06:23:25;11.83;;;3.93;;
75417;SDS011;63997;52.112;5.420;2023-05-23T06:25:51;11.85;;;3.30;;
75417;SDS011;63997;52.112;5.420;2023-05-23T06:28:18;11.23;;;3.25;;
75417;SDS011;63997;52.112;5.420;2023-05-23T06:30:44;8.23;;;3.50;;
75417;SDS011;63997;52.112;5.420;2023-05-23T06:33:11;14.95;;;3.83;;
75417;SDS011;63997;52.112;5.420;2023-05-23T06:35:38;8.23;;;3.20;;
75417;SDS011;63997;52.112;5.420;2023-05-23T06:38:04;10.77;;;3.92;;
75417;SDS011;63997;52.112;5.420;2023-05-23T06:40:31;9.35;;;3.40;;
75417;SDS011;63997;52.112;5.420;2023-05-23T06:42:57;13.80;;;3.92;;
75417;SDS011;63997;52.112;5.420;2023-05-23T06:45:24;10.27;;;3.60;;
75417;SDS011;63997;52.112;5.420;2023-05-23T06:47:51;12.67;;;3.50;;
75417;SDS011;63997;52.112;5.420;2023-05-23T06:50:17;9.80;;;3.30;;
75417;SDS011;63997;52.112;5.420;2023-05-23T06:52:45;8.35;;;3.55;;
75417;SDS011;63997;52.112;5.420;2023-05-23T06:55:12;6.60;;;3.22;;
75417;SDS011;63997;52.112;5.420;2023-05-23T06:57:43;10.98;;;3.50;;
75417;SDS011;63997;52.112;5.420;2023-05-23T07:00:10;7.63;;;2.70;;
75417;SDS011;63997;52.112;5.420;2023-05-23T07:02:38;13.60;;;3.13;;
75417;SDS011;63997;52.112;5.420;2023-05-23T07:05:05;8.07;;;3.05;;
75417;SDS011;63997;52.112;5.420;2023-05-23T07:07:32;12.63;;;3.28;;
75417;SDS011;63997;52.112;5.420;2023-05-23T07:09:58;8.30;;;2.15;;
75417;SDS011;63997;52.112;5.420;2023-05-23T07:12:24;12.53;;;2.40;;
75417;SDS011;63997;52.112;5.420;2023-05-23T07:14:51;8.90;;;2.20;;
75417;SDS011;63997;52.112;5.420;2023-05-23T07:17:17;7.03;;;1.80;;
75417;SDS011;63997;52.112;5.420;2023-05-23T07:19:44;6.38;;;1.98;;
75417;SDS011;63997;52.112;5.420;2023-05-23T07:22:10;9.18;;;1.85;;
75417;SDS011;63997;52.112;5.420;2023-05-23T07:24:37;11.63;;;1.97;;
75417;SDS011;63997;52.112;5.420;2023-05-23T07:27:03;5.28;;;1.50;;
75417;SDS011;63997;52.112;5.420;2023-05-23T07:29:30;13.10;;;1.63;;
75417;SDS011;63997;52.112;5.420;2023-05-23T07:31:57;9.70;;;1.20;;
75417;SDS011;63997;52.112;5.420;2023-05-23T07:34:24;7.63;;;1.05;;
75417;SDS011;63997;52.112;5.420;2023-05-23T07:36:51;7.77;;;1.10;;
75417;SDS011;63997;52.112;5.420;2023-05-23T07:39:18;10.18;;;1.75;;
75417;SDS011;63997;52.112;5.420;2023-05-23T07:41:47;15.73;;;2.63;;
75417;SDS011;63997;52.112;5.420;2023-05-23T07:44:15;8.77;;;1.52;;
75417;SDS011;63997;52.112;5.420;2023-05-23T07:46:41;11.50;;;1.40;;
75417;SDS011;63997;52.112;5.420;2023-05-23T07:49:08;12.27;;;2.00;;
75417;SDS011;63997;52.112;5.420;2023-05-23T07:51:34;11.88;;;1.77;;
75417;SDS011;63997;52.112;5.420;2023-05-23T07:54:01;9.50;;;1.42;;
75417;SDS011;63997;52.112;5.420;2023-05-23T07:56:28;11.65;;;1.65;;
75417;SDS011;63997;52.112;5.420;2023-05-23T07:58:54;9.35;;;1.38;;
75417;SDS011;63997;52.112;5.420;2023-05-23T08:01:21;8.97;;;1.50;;
75417;SDS011;63997;52.112;5.420;2023-05-23T08:03:47;6.10;;;1.33;;
75417;SDS011;63997;52.112;5.420;2023-05-23T08:06:14;6.50;;;1.30;;
75417;SDS011;63997;52.112;5.420;2023-05-23T08:08:40;9.98;;;1.48;;
75417;SDS011;63997;52.112;5.420;2023-05-23T08:11:08;10.23;;;1.52;;
75417;SDS011;63997;52.112;5.420;2023-05-23T08:13:35;5.70;;;2.33;;
75417;SDS011;63997;52.112;5.420;2023-05-23T08:16:01;9.82;;;1.80;;
75417;SDS011;63997;52.112;5.420;2023-05-23T08:18:28;14.13;;;2.22;;
75417;SDS011;63997;52.112;5.420;2023-05-23T08:20:56;10.85;;;1.73;;
75417;SDS011;63997;52.112;5.420;2023-05-23T08:23:22;8.05;;;1.10;;
75417;SDS011;63997;52.112;5.420;2023-05-23T08:25:49;9.30;;;1.40;;
75417;SDS011;63997;52.112;5.420;2023-05-23T08:28:17;10.63;;;1.60;;
75417;SDS011;63997;52.112;5.420;2023-05-23T08:30:43;15.93;;;2.00;;
75417;SDS011;63997;52.112;5.420;2023-05-23T08:33:10;10.82;;;1.35;;
75417;SDS011;63997;52.112;5.420;2023-05-23T08:35:36;12.07;;;2.22;;
75417;SDS011;63997;52.112;5.420;2023-05-23T08:38:04;12.57;;;2.07;;
75417;SDS011;63997;52.112;5.420;2023-05-23T08:40:32;11.85;;;1.50;;
75417;SDS011;63997;52.112;5.420;2023-05-23T08:42:59;8.85;;;1.60;;
75417;SDS011;63997;52.112;5.420;2023-05-23T08:45:27;9.18;;;1.67;;
75417;SDS011;63997;52.112;5.420;2023-05-23T08:47:55;10.60;;;1.98;;
75417;SDS011;63997;52.112;5.420;2023-05-23T08:50:26;8.83;;;1.73;;
75417;SDS011;63997;52.112;5.420;2023-05-23T08:52:56;6.07;;;1.35;;
75417;SDS011;63997;52.112;5.420;2023-05-23T08:55:25;8.25;;;1.20;;
75417;SDS011;63997;52.112;5.420;2023-05-23T08:57:54;8.35;;;1.85;;
75417;SDS011;63997;52.112;5.420;2023-05-23T09:00:22;10.27;;;1.70;;
75417;SDS011;63997;52.112;5.420;2023-05-23T09:02:51;8.77;;;2.27;;
75417;SDS011;63997;52.112;5.420;2023-05-23T09:05:18;8.05;;;1.48;;
75417;SDS011;63997;52.112;5.420;2023-05-23T09:07:45;8.90;;;1.48;;
75417;SDS011;63997;52.112;5.420;2023-05-23T09:10:13;10.13;;;1.98;;
75417;SDS011;63997;52.112;5.420;2023-05-23T09:12:42;11.82;;;1.58;;
75417;SDS011;63997;52.112;5.420;2023-05-23T09:15:09;9.47;;;1.57;;
75417;SDS011;63997;52.112;5.420;2023-05-23T09:17:36;7.72;;;1.40;;
75417;SDS011;63997;52.112;5.420;2023-05-23T09:20:07;8.20;;;1.42;;
75417;SDS011;63997;52.112;5.420;2023-05-23T09:22:37;6.70;;;1.55;;
75417;SDS011;63997;52.112;5.420;2023-05-23T09:25:04;9.10;;;1.83;;
75417;SDS011;63997;52.112;5.420;2023-05-23T09:27:32;6.50;;;1.83;;
75417;SDS011;63997;52.112;5.420;2023-05-23T09:30:03;11.30;;;1.90;;
75417;SDS011;63997;52.112;5.420;2023-05-23T09:32:34;11.27;;;2.03;;
75417;SDS011;63997;52.112;5.420;2023-05-23T09:35:01;7.95;;;1.55;;
75417;SDS011;63997;52.112;5.420;2023-05-23T09:39:57;6.87;;;1.27;;
75417;SDS011;63997;52.112;5.420;2023-05-23T09:42:25;9.32;;;1.90;;
75417;SDS011;63997;52.112;5.420;2023-05-23T09:44:57;9.43;;;1.70;;
75417;SDS011;63997;52.112;5.420;2023-05-23T09:47:27;8.20;;;1.50;;
75417;SDS011;63997;52.112;5.420;2023-05-23T09:49:54;11.77;;;2.13;;
75417;SDS011;63997;52.112;5.420;2023-05-23T09:52:21;8.43;;;1.73;;
75417;SDS011;63997;52.112;5.420;2023-05-23T09:54:47;11.55;;;1.42;;
75417;SDS011;63997;52.112;5.420;2023-05-23T09:57:14;6.15;;;1.60;;
75417;SDS011;63997;52.112;5.420;2023-05-23T09:59:45;6.15;;;1.35;;
75417;SDS011;63997;52.112;5.420;2023-05-23T10:02:22;11.25;;;1.52;;
75417;SDS011;63997;52.112;5.420;2023-05-23T10:05:06;8.93;;;1.50;;
75417;SDS011;63997;52.112;5.420;2023-05-23T10:07:36;8.52;;;1.52;;
75417;SDS011;63997;52.112;5.420;2023-05-23T10:10:04;7.15;;;1.10;;
75417;SDS011;63997;52.112;5.420;2023-05-23T10:12:44;11.70;;;1.50;;
75417;SDS011;63997;52.112;5.420;2023-05-23T10:15:15;7.00;;;1.33;;
75417;SDS011;63997;52.112;5.420;2023-05-23T10:20:29;5.35;;;1.23;;
75417;SDS011;63997;52.112;5.420;2023-05-23T10:23:00;9.27;;;1.90;;
75417;SDS011;63997;52.112;5.420;2023-05-23T10:25:27;9.98;;;1.98;;
75417;SDS011;63997;52.112;5.420;2023-05-23T10:27:55;13.43;;;1.42;;
75417;SDS011;63997;52.112;5.420;2023-05-23T10:30:29;7.80;;;1.37;;
75417;SDS011;63997;52.112;5.420;2023-05-23T10:32:57;13.68;;;2.47;;
75417;SDS011;63997;52.112;5.420;2023-05-23T10:35:38;8.13;;;1.48;;
75417;SDS011;63997;52.112;5.420;2023-05-23T10:44:03;8.60;;;1.77;;
75417;SDS011;63997;52.112;5.420;2023-05-23T10:46:51;9.75;;;1.30;;
75417;SDS011;63997;52.112;5.420;2023-05-23T10:49:19;5.88;;;1.13;;
75417;SDS011;63997;52.112;5.420;2023-05-23T10:51:49;6.88;;;1.10;;
75417;SDS011;63997;52.112;5.420;2023-05-23T10:54:19;9.68;;;1.70;;
75417;SDS011;63997;52.112;5.420;2023-05-23T10:56:46;9.73;;;1.50;;
75417;SDS011;63997;52.112;5.420;2023-05-23T10:59:27;9.23;;;1.15;;
75417;SDS011;63997;52.112;5.420;2023-05-23T11:01:54;9.18;;;1.63;;
75417;SDS011;63997;52.112;5.420;2023-05-23T11:04:24;12.55;;;1.45;;
75417;SDS011;63997;52.112;5.420;2023-05-23T11:06:53;13.95;;;1.67;;
75417;SDS011;63997;52.112;5.420;2023-05-23T11:09:22;13.30;;;1.70;;
75417;SDS011;63997;52.112;5.420;2023-05-23T11:12:22;11.57;;;1.50;;
75417;SDS011;63997;52.112;5.420;2023-05-23T11:17:14;7.35;;;1.38;;
75417;SDS011;63997;52.112;5.420;2023-05-23T11:20:02;3.35;;;0.80;;
75417;SDS011;63997;52.112;5.420;2023-05-23T11:22:34;7.63;;;0.80;;
75417;SDS011;63997;52.112;5.420;2023-05-23T11:25:07;6.97;;;1.80;;
75417;SDS011;63997;52.112;5.420;2023-05-23T11:27:36;7.07;;;1.15;;
75417;SDS011;63997;52.112;5.420;2023-05-23T11:32:41;4.22;;;1.00;;
75417;SDS011;63997;52.112;5.420;2023-05-23T11:35:15;7.00;;;1.43;;
75417;SDS011;63997;52.112;5.420;2023-05-23T11:37:42;9.80;;;1.30;;
75417;SDS011;63997;52.112;5.420;2023-05-23T11:42:57;8.00;;;1.98;;
75417;SDS011;63997;52.112;5.420;2023-05-23T11:45:25;11.35;;;3.05;;
75417;SDS011;63997;52.112;5.420;2023-05-23T11:47:52;7.07;;;1.50;;
75417;SDS011;63997;52.112;5.420;2023-05-23T11:50:19;9.00;;;1.52;;
75417;SDS011;63997;52.112;5.420;2023-05-23T11:52:46;6.78;;;0.75;;
75417;SDS011;63997;52.112;5.420;2023-05-23T11:55:18;5.75;;;1.10;;
75417;SDS011;63997;52.112;5.420;2023-05-23T11:57:46;9.90;;;1.65;;
75417;SDS011;63997;52.112;5.420;2023-05-23T12:00:13;11.73;;;1.37;;
75417;SDS011;63997;52.112;5.420;2023-05-23T12:02:40;9.23;;;1.20;;
75417;SDS011;63997;52.112;5.420;2023-05-23T12:05:08;7.10;;;0.95;;
75417;SDS011;63997;52.112;5.420;2023-05-23T12:07:43;8.07;;;1.23;;
75417;SDS011;63997;52.112;5.420;2023-05-23T12:10:13;4.88;;;1.00;;
75417;SDS011;63997;52.112;5.420;2023-05-23T12:12:41;3.13;;;0.53;;
75417;SDS011;63997;52.112;5.420;2023-05-23T12:15:09;6.68;;;0.95;;
75417;SDS011;63997;52.112;5.420;2023-05-23T12:17:43;4.78;;;1.30;;
75417;SDS011;63997;52.112;5.420;2023-05-23T12:20:13;5.95;;;0.88;;
75417;SDS011;63997;52.112;5.420;2023-05-23T12:22:40;7.65;;;1.65;;
75417;SDS011;63997;52.112;5.420;2023-05-23T12:25:07;6.13;;;1.80;;
75417;SDS011;63997;52.112;5.420;2023-05-23T12:27:35;8.00;;;1.48;;
75417;SDS011;63997;52.112;5.420;2023-05-23T12:30:07;8.45;;;1.23;;
75417;SDS011;63997;52.112;5.420;2023-05-23T12:32:46;8.38;;;1.20;;
75417;SDS011;63997;52.112;5.420;2023-05-23T12:35:13;6.90;;;1.00;;
75417;SDS011;63997;52.112;5.420;2023-05-23T12:37:42;4.23;;;1.13;;
75417;SDS011;63997;52.112;5.420;2023-05-23T12:42:50;5.65;;;1.08;;
75417;SDS011;63997;52.112;5.420;2023-05-23T12:45:23;6.32;;;1.30;;
75417;SDS011;63997;52.112;5.420;2023-05-23T12:48:02;8.00;;;1.60;;
75417;SDS011;63997;52.112;5.420;2023-05-23T12:50:29;7.83;;;1.00;;
75417;SDS011;63997;52.112;5.420;2023-05-23T12:52:56;4.03;;;0.85;;
75417;SDS011;63997;52.112;5.420;2023-05-23T12:55:23;6.18;;;1.00;;
75417;SDS011;63997;52.112;5.420;2023-05-23T12:57:49;7.30;;;1.65;;
75417;SDS011;63997;52.112;5.420;2023-05-23T13:00:16;13.52;;;1.48;;
75417;SDS011;63997;52.112;5.420;2023-05-23T13:02:44;5.23;;;1.10;;
75417;SDS011;63997;52.112;5.420;2023-05-23T13:05:11;8.70;;;1.45;;
75417;SDS011;63997;52.112;5.420;2023-05-23T13:07:37;7.70;;;1.10;;
75417;SDS011;63997;52.112;5.420;2023-05-23T13:10:04;10.65;;;1.33;;
75417;SDS011;63997;52.112;5.420;2023-05-23T13:12:31;8.40;;;1.30;;
75417;SDS011;63997;52.112;5.420;2023-05-23T13:14:59;7.07;;;1.10;;
75417;SDS011;63997;52.112;5.420;2023-05-23T13:17:25;7.47;;;0.98;;
75417;SDS011;63997;52.112;5.420;2023-05-23T13:19:52;9.38;;;1.27;;
75417;SDS011;63997;52.112;5.420;2023-05-23T13:22:18;11.10;;;1.42;;
75417;SDS011;63997;52.112;5.420;2023-05-23T13:24:45;5.72;;;1.25;;
75417;SDS011;63997;52.112;5.420;2023-05-23T13:27:11;10.07;;;1.27;;
75417;SDS011;63997;52.112;5.420;2023-05-23T13:29:38;5.95;;;1.00;;
75417;SDS011;63997;52.112;5.420;2023-05-23T13:32:04;9.30;;;1.17;;
75417;SDS011;63997;52.112;5.420;2023-05-23T13:34:31;9.23;;;1.42;;
75417;SDS011;63997;52.112;5.420;2023-05-23T13:37:00;8.30;;;1.38;;
75417;SDS011;63997;52.112;5.420;2023-05-23T13:39:26;8.20;;;1.10;;
75417;SDS011;63997;52.112;5.420;2023-05-23T13:41:53;6.88;;;1.02;;
75417;SDS011;63997;52.112;5.420;2023-05-23T13:44:19;10.40;;;1.38;;
75417;SDS011;63997;52.112;5.420;2023-05-23T13:46:46;7.95;;;1.38;;
75417;SDS011;63997;52.112;5.420;2023-05-23T13:49:12;4.85;;;0.70;;
75417;SDS011;63997;52.112;5.420;2023-05-23T13:51:39;5.20;;;1.10;;
75417;SDS011;63997;52.112;5.420;2023-05-23T13:54:07;6.55;;;0.98;;
75417;SDS011;63997;52.112;5.420;2023-05-23T13:56:33;14.52;;;1.45;;
75417;SDS011;63997;52.112;5.420;2023-05-23T13:59:00;4.25;;;1.02;;
75417;SDS011;63997;52.112;5.420;2023-05-23T14:01:26;4.13;;;0.73;;
75417;SDS011;63997;52.112;5.420;2023-05-23T14:03:53;5.03;;;1.00;;
75417;SDS011;63997;52.112;5.420;2023-05-23T14:06:20;4.03;;;0.98;;
75417;SDS011;63997;52.112;5.420;2023-05-23T14:08:46;7.32;;;0.98;;
75417;SDS011;63997;52.112;5.420;2023-05-23T14:11:12;4.05;;;0.77;;
75417;SDS011;63997;52.112;5.420;2023-05-23T14:13:39;3.90;;;0.98;;
75417;SDS011;63997;52.112;5.420;2023-05-23T14:16:05;7.50;;;1.20;;
75417;SDS011;63997;52.112;5.420;2023-05-23T14:18:32;5.63;;;0.75;;
75417;SDS011;63997;52.112;5.420;2023-05-23T14:20:58;5.28;;;0.80;;
75417;SDS011;63997;52.112;5.420;2023-05-23T14:23:25;3.83;;;0.80;;
75417;SDS011;63997;52.112;5.420;2023-05-23T14:25:51;6.90;;;1.10;;
75417;SDS011;63997;52.112;5.420;2023-05-23T14:28:18;8.63;;;1.00;;
75417;SDS011;63997;52.112;5.420;2023-05-23T14:30:44;6.10;;;0.80;;
75417;SDS011;63997;52.112;5.420;2023-05-23T14:33:11;6.25;;;1.10;;
75417;SDS011;63997;52.112;5.420;2023-05-23T14:35:37;9.02;;;1.40;;
75417;SDS011;63997;52.112;5.420;2023-05-23T14:38:05;8.10;;;1.23;;
75417;SDS011;63997;52.112;5.420;2023-05-23T14:40:31;9.40;;;1.53;;
75417;SDS011;63997;52.112;5.420;2023-05-23T14:42:58;5.30;;;1.05;;
75417;SDS011;63997;52.112;5.420;2023-05-23T14:45:24;4.90;;;1.02;;
75417;SDS011;63997;52.112;5.420;2023-05-23T14:47:50;6.25;;;1.15;;
75417;SDS011;63997;52.112;5.420;2023-05-23T14:50:17;4.97;;;1.00;;
75417;SDS011;63997;52.112;5.420;2023-05-23T14:52:44;6.57;;;1.00;;
75417;SDS011;63997;52.112;5.420;2023-05-23T14:55:11;5.10;;;1.20;;
75417;SDS011;63997;52.112;5.420;2023-05-23T14:57:37;6.40;;;0.98;;
75417;SDS011;63997;52.112;5.420;2023-05-23T15:00:04;8.20;;;1.30;;
75417;SDS011;63997;52.112;5.420;2023-05-23T15:02:31;6.40;;;0.90;;
75417;SDS011;63997;52.112;5.420;2023-05-23T15:04:58;7.23;;;1.40;;
75417;SDS011;63997;52.112;5.420;2023-05-23T15:07:24;10.10;;;1.60;;
75417;SDS011;63997;52.112;5.420;2023-05-23T15:09:51;7.97;;;1.48;;
75417;SDS011;63997;52.112;5.420;2023-05-23T15:12:18;4.60;;;0.60;;
75417;SDS011;63997;52.112;5.420;2023-05-23T15:14:44;5.43;;;0.90;;
75417;SDS011;63997;52.112;5.420;2023-05-23T15:17:10;4.47;;;0.57;;
75417;SDS011;63997;52.112;5.420;2023-05-23T15:19:38;8.02;;;1.30;;
75417;SDS011;63997;52.112;5.420;2023-05-23T15:22:08;8.27;;;1.23;;